Time;durP1;ratioP1;P1;durP2;ratioP2;P2;SDS_P1;SDS_P2;PMS_P1;PMS_P2;Temp;Humidity;BMP_temperature;BMP_pressure;BME280_temperature;BME280_humidity;BME280_pressure;Samples;Min_cycle;Max_cycle;Signal;HPM_P1;HPM_P2
2023/09/26 00:00:22;;;;;;;9.43;3.57;;;;;;;21.91;52.41;97321.66;5047607;28;20208;-77
2023/09/26 00:02:53;;;;;;;12.43;3.80;;;;;;;21.86;53.33;97325.50;5047253;28;20237;-76
2023/09/26 00:05:23;;;;;;;15.53;3.83;;;;;;;21.89;52.80;97321.78;5046656;28;20651;-76
2023/09/26 00:07:55;;;;;;;12.87;3.60;;;;;;;21.85;53.08;97326.50;5047010;28;20280;-80
2023/09/26 00:10:22;;;;;;;16.23;4.30;;;;;;;21.97;52.50;97327.22;5046759;28;20299;-79
2023/09/26 00:12:49;;;;;;;9.93;4.00;;;;;;;21.83;52.90;97322.31;5046913;28;20196;-78
2023/09/26 00:15:16;;;;;;;12.47;3.83;;;;;;;21.95;53.31;97329.16;5046693;28;20217;-82
2023/09/26 00:17:44;;;;;;;13.23;4.20;;;;;;;21.83;53.08;97299.41;5046151;28;20310;-77
2023/09/26 00:20:18;;;;;;;12.43;4.37;;;;;;;21.79;52.79;97281.31;5045592;28;20701;-76
2023/09/26 00:22:46;;;;;;;18.57;4.60;;;;;;;22.00;52.91;97320.84;5046735;28;20270;-78
2023/09/26 00:25:13;;;;;;;12.73;4.13;;;;;;;21.98;53.27;97315.72;5046785;28;20278;-77
2023/09/26 00:27:40;;;;;;;16.37;4.40;;;;;;;21.91;53.60;97324.31;5046734;28;20247;-80
2023/09/26 00:30:12;;;;;;;9.60;3.80;;;;;;;21.68;54.50;97311.25;5046948;28;20212;-78
2023/09/26 00:32:39;;;;;;;14.43;3.73;;;;;;;21.56;54.96;97314.09;5047070;28;20291;-77
2023/09/26 00:35:13;;;;;;;12.87;4.43;;;;;;;21.59;55.08;97313.84;5046643;28;20199;-76
2023/09/26 00:37:42;;;;;;;11.90;3.90;;;;;;;21.46;55.15;97307.94;5062206;28;20830;-75
2023/09/26 00:40:11;;;;;;;10.73;3.57;;;;;;;21.63;54.57;97318.72;5046831;28;20298;-82
2023/09/26 00:42:38;;;;;;;16.00;4.90;;;;;;;21.64;55.31;97322.19;5046704;28;20238;-78
2023/09/26 00:45:06;;;;;;;10.30;4.50;;;;;;;21.57;55.35;97297.34;5062075;28;20589;-76
2023/09/26 00:47:35;;;;;;;10.83;3.87;;;;;;;21.64;55.34;97324.81;5046608;28;20196;-80
2023/09/26 00:50:04;;;;;;;21.33;5.13;;;;;;;21.43;55.42;97322.22;5046464;28;20226;-76
2023/09/26 00:52:31;;;;;;;10.63;4.20;;;;;;;21.43;56.33;97316.13;5046742;28;20228;-76
2023/09/26 00:54:59;;;;;;;19.47;4.97;;;;;;;21.57;55.93;97310.50;5046732;28;20267;-76
2023/09/26 00:57:26;;;;;;;12.50;4.50;;;;;;;21.29;56.67;97317.28;5046636;28;20213;-77
2023/09/26 00:59:54;;;;;;;12.67;4.17;;;;;;;21.22;56.75;97310.03;5047280;28;20205;-81
2023/09/26 01:02:22;;;;;;;13.17;4.67;;;;;;;20.87;58.03;97307.66;5047372;28;20792;-78
2023/09/26 01:04:49;;;;;;;14.07;4.27;;;;;;;20.72;57.88;97291.34;5047134;28;20237;-77
2023/09/26 01:07:16;;;;;;;17.33;4.73;;;;;;;20.91;58.41;97307.28;5046684;28;20677;-84
2023/09/26 01:09:44;;;;;;;10.63;4.70;;;;;;;20.81;58.75;97308.16;5062431;28;20577;-76
2023/09/26 01:12:11;;;;;;;13.30;4.77;;;;;;;20.83;58.82;97312.34;5046681;28;20212;-76
2023/09/26 01:14:38;;;;;;;11.53;4.73;;;;;;;20.78;59.16;97303.16;5046954;28;20652;-76
2023/09/26 01:17:05;;;;;;;16.53;4.50;;;;;;;21.05;58.18;97306.16;5046064;28;20283;-77
2023/09/26 01:19:32;;;;;;;8.50;4.63;;;;;;;21.12;58.01;97314.38;5046399;28;20214;-77
2023/09/26 01:21:59;;;;;;;14.13;4.80;;;;;;;21.24;57.71;97311.56;5046364;28;20309;-77
2023/09/26 01:24:26;;;;;;;10.40;4.27;;;;;;;21.48;57.37;97306.84;5046035;28;20859;-75
2023/09/26 01:26:55;;;;;;;15.67;4.33;;;;;;;21.51;56.72;97308.41;5044830;28;20243;-82
2023/09/26 01:29:22;;;;;;;8.50;4.53;;;;;;;21.26;56.92;97275.41;5048581;28;20199;-76
2023/09/26 01:31:49;;;;;;;13.73;4.10;;;;;;;21.57;56.63;97305.25;5050068;28;20206;-79
2023/09/26 01:34:17;;;;;;;12.27;5.13;;;;;;;21.59;56.31;97311.22;5050768;28;20235;-75
2023/09/26 01:36:44;;;;;;;9.70;4.33;;;;;;;21.48;56.76;97303.38;5065551;28;20209;-75
2023/09/26 01:39:11;;;;;;;13.17;4.03;;;;;;;21.49;57.20;97307.69;5049771;28;20218;-76
2023/09/26 01:41:39;;;;;;;11.50;5.27;;;;;;;21.46;57.32;97308.78;5049606;28;20714;-75
2023/09/26 01:44:06;;;;;;;11.50;4.37;;;;;;;21.46;57.61;97305.31;5049964;28;20200;-75
2023/09/26 01:46:33;;;;;;;11.40;4.47;;;;;;;21.37;57.97;97296.38;5050344;28;20652;-75
2023/09/26 01:49:01;;;;;;;12.30;4.40;;;;;;;21.61;57.46;97310.13;5050230;28;20207;-76
2023/09/26 01:51:29;;;;;;;14.57;5.27;;;;;;;21.58;57.59;97302.47;5065592;28;20265;-75
2023/09/26 01:53:56;;;;;;;13.23;5.37;;;;;;;21.26;59.02;97303.53;5048973;28;20198;-75
2023/09/26 01:56:23;;;;;;;13.83;5.13;;;;;;;21.05;59.65;97312.28;5050162;28;20201;-76
2023/09/26 01:58:50;;;;;;;18.30;5.60;;;;;;;21.08;59.97;97310.34;5048696;28;20604;-76
2023/09/26 02:01:17;;;;;;;15.57;4.73;;;;;;;21.10;59.80;97309.25;5065172;28;20235;-76
2023/09/26 02:03:44;;;;;;;12.97;4.90;;;;;;;21.18;59.86;97311.25;5050228;28;20222;-76
2023/09/26 02:06:11;;;;;;;11.87;4.73;;;;;;;21.16;59.88;97302.63;5050181;28;20204;-77
2023/09/26 02:08:38;;;;;;;16.23;5.70;;;;;;;21.02;60.11;97301.97;5049764;28;20794;-76
2023/09/26 02:11:06;;;;;;;19.53;4.93;;;;;;;21.02;60.19;97307.25;5052014;28;20191;-76
2023/09/26 02:13:33;;;;;;;14.70;5.07;;;;;;;21.00;60.40;97305.66;5052481;28;20206;-77
2023/09/26 02:16:00;;;;;;;16.93;5.20;;;;;;;21.03;60.42;97308.94;5069451;28;20210;-77
2023/09/26 02:18:29;;;;;;;10.47;4.50;;;;;;;20.97;60.73;97308.56;5069997;28;20237;-76
2023/09/26 02:20:56;;;;;;;15.43;5.60;;;;;;;20.89;61.33;97308.38;5052793;28;20268;-78
2023/09/26 02:23:25;;;;;;;14.47;4.43;;;;;;;20.85;60.83;97283.25;5071007;28;20586;-76
2023/09/26 02:25:52;;;;;;;18.13;5.40;;;;;;;20.91;60.64;97293.28;5054764;28;20200;-76
2023/09/26 02:28:20;;;;;;;14.17;4.73;;;;;;;21.11;60.15;97299.53;5052919;28;20289;-80
2023/09/26 02:30:47;;;;;;;11.73;4.63;;;;;;;21.02;60.42;97299.34;5055064;28;20199;-76
2023/09/26 02:33:14;;;;;;;10.67;4.73;;;;;;;20.80;61.09;97288.06;5058287;28;20232;-77
2023/09/26 02:35:41;;;;;;;10.67;5.20;;;;;;;20.65;61.28;97290.16;5071556;28;20195;-77
2023/09/26 02:38:09;;;;;;;16.27;5.13;;;;;;;20.72;61.12;97288.69;5054540;28;20208;-80
2023/09/26 02:40:37;;;;;;;11.13;4.67;;;;;;;20.81;61.09;97293.19;5050533;28;20257;-78
2023/09/26 02:43:04;;;;;;;17.90;4.77;;;;;;;20.91;60.49;97293.28;5064358;28;20244;-86
2023/09/26 02:45:31;;;;;;;16.10;4.93;;;;;;;20.82;60.83;97291.41;5049254;28;20229;-77
2023/09/26 02:47:59;;;;;;;11.73;4.73;;;;;;;20.64;60.93;97290.28;5048594;28;20198;-77
2023/09/26 02:50:26;;;;;;;12.47;4.27;;;;;;;20.62;60.91;97300.09;5050054;28;20583;-79
2023/09/26 02:52:54;;;;;;;16.90;4.70;;;;;;;20.76;60.56;97298.00;5069854;28;20678;-85
2023/09/26 02:55:21;;;;;;;10.80;4.53;;;;;;;20.78;60.52;97296.09;5053623;28;20257;-76
2023/09/26 02:57:48;;;;;;;11.17;5.10;;;;;;;20.78;60.52;97301.34;5053375;28;20274;-77
2023/09/26 03:00:18;;;;;;;11.57;4.30;;;;;;;20.75;60.45;97291.06;5064331;28;20556;-78
2023/09/26 03:02:46;;;;;;;12.60;4.60;;;;;;;20.86;59.96;97293.66;5050185;28;20340;-79
2023/09/26 03:05:16;;;;;;;10.27;4.63;;;;;;;20.84;60.03;97287.69;5065547;28;20249;-76
2023/09/26 03:07:44;;;;;;;10.50;4.20;;;;;;;21.09;59.39;97299.69;5050001;28;20198;-78
2023/09/26 03:10:14;;;;;;;12.50;4.87;;;;;;;21.22;59.05;97299.47;5065041;28;20673;-78
2023/09/26 03:12:45;;;;;;;11.23;4.57;;;;;;;21.20;59.54;97310.16;5049253;28;20264;-78
2023/09/26 03:15:12;;;;;;;12.87;4.90;;;;;;;21.23;59.46;97306.41;5047551;28;20197;-77
2023/09/26 03:17:39;;;;;;;11.33;5.10;;;;;;;21.29;58.86;97309.38;5043341;28;20319;-77
2023/09/26 03:20:08;;;;;;;15.27;5.53;;;;;;;21.15;59.53;97320.22;5065410;28;20211;-82
2023/09/26 03:22:36;;;;;;;12.43;5.47;;;;;;;21.17;59.71;97325.38;5048688;28;20222;-76
2023/09/26 03:25:05;;;;;;;12.87;5.43;;;;;;;21.22;59.83;97323.19;5048576;28;20205;-76
2023/09/26 03:27:32;;;;;;;16.03;5.90;;;;;;;21.12;59.65;97306.50;5048360;28;20214;-76
2023/09/26 03:29:59;;;;;;;16.00;5.40;;;;;;;21.18;59.88;97311.25;5048903;28;20198;-80
2023/09/26 03:32:29;;;;;;;15.73;5.77;;;;;;;21.08;60.42;97318.25;5050992;28;20228;-78
2023/09/26 03:34:56;;;;;;;13.97;5.73;;;;;;;21.08;60.60;97314.63;5063836;28;20297;-77
2023/09/26 03:37:24;;;;;;;18.30;5.50;;;;;;;21.08;60.66;97315.63;5064358;28;20199;-76
2023/09/26 03:39:51;;;;;;;25.00;6.90;;;;;;;21.08;61.00;97308.56;5053097;28;20634;-85
2023/09/26 03:42:19;;;;;;;15.87;6.30;;;;;;;21.00;61.16;97318.84;5050572;28;20286;-76
2023/09/26 03:44:46;;;;;;;17.30;6.97;;;;;;;20.98;61.57;97315.50;5051824;28;20199;-76
2023/09/26 03:47:13;;;;;;;17.10;6.27;;;;;;;20.90;61.82;97317.94;5049880;28;20195;-78
2023/09/26 03:49:41;;;;;;;23.33;6.73;;;;;;;20.74;62.50;97326.25;5050238;28;20200;-77
2023/09/26 03:52:08;;;;;;;19.57;5.70;;;;;;;20.81;61.82;97316.06;5050165;28;20239;-78
2023/09/26 03:54:36;;;;;;;26.10;6.83;;;;;;;20.76;63.09;97320.88;5053094;28;20205;-76
2023/09/26 03:57:04;;;;;;;17.53;6.33;;;;;;;20.88;61.96;97325.97;5044965;28;20234;-75
2023/09/26 03:59:32;;;;;;;16.77;5.60;;;;;;;20.79;62.30;97323.25;5049840;28;20223;-78
2023/09/26 04:02:00;;;;;;;16.90;5.33;;;;;;;20.79;62.30;97316.16;5050952;28;20213;-77
2023/09/26 04:04:28;;;;;;;15.30;5.30;;;;;;;20.89;61.81;97322.38;5048795;28;20214;-76
2023/09/26 04:06:56;;;;;;;11.37;4.97;;;;;;;20.94;61.82;97329.88;5055870;28;20197;-75
2023/09/26 04:09:23;;;;;;;14.50;5.57;;;;;;;20.83;62.07;97324.69;5052696;28;20198;-77
2023/09/26 04:11:50;;;;;;;12.20;5.07;;;;;;;21.01;62.17;97331.06;5047048;28;20280;-77
2023/09/26 04:14:17;;;;;;;16.47;5.27;;;;;;;20.92;62.16;97332.66;5048226;28;20222;-82
2023/09/26 04:16:48;;;;;;;15.00;4.57;;;;;;;20.60;62.31;97302.03;5050321;28;20237;-80
2023/09/26 04:19:15;;;;;;;14.20;5.53;;;;;;;20.88;62.51;97331.22;5047875;28;20304;-78
2023/09/26 04:21:42;;;;;;;19.47;6.60;;;;;;;20.69;63.07;97338.94;5050948;28;20276;-81
2023/09/26 04:24:09;;;;;;;12.30;5.60;;;;;;;20.57;63.47;97325.94;5048383;28;20232;-77
2023/09/26 04:26:36;;;;;;;14.67;7.13;;;;;;;20.87;62.81;97342.72;5047355;28;20685;-76
2023/09/26 04:29:05;;;;;;;10.70;5.63;;;;;;;20.90;62.89;97334.56;5047416;28;20202;-78
2023/09/26 04:31:32;;;;;;;14.97;6.47;;;;;;;20.87;63.03;97341.88;5044816;28;20199;-80
2023/09/26 04:33:59;;;;;;;12.53;5.33;;;;;;;20.56;63.99;97329.56;5060843;28;20264;-76
2023/09/26 04:36:28;;;;;;;17.10;5.60;;;;;;;20.39;64.60;97325.66;5048048;28;20289;-79
2023/09/26 04:38:55;;;;;;;14.87;5.43;;;;;;;20.39;64.07;97317.75;5047250;28;20292;-77
2023/09/26 04:41:22;;;;;;;16.03;5.67;;;;;;;20.65;63.85;97331.44;5049672;28;20206;-76
2023/09/26 04:43:49;;;;;;;11.77;5.63;;;;;;;20.87;63.08;97332.19;5049136;28;20225;-78
2023/09/26 04:46:17;;;;;;;16.30;6.30;;;;;;;21.01;62.71;97337.16;5046639;28;20242;-79
2023/09/26 04:48:44;;;;;;;11.23;4.70;;;;;;;21.01;62.44;97329.25;5046714;28;20208;-76
2023/09/26 04:51:15;;;;;;;14.80;5.97;;;;;;;21.13;62.80;97332.69;5045718;28;20198;-74
2023/09/26 04:53:42;;;;;;;18.77;8.00;;;;;;;21.01;62.43;97336.31;5041201;28;20222;-77
2023/09/26 04:56:10;;;;;;;16.37;5.57;;;;;;;20.62;63.09;97327.25;5044976;28;20285;-79
2023/09/26 04:58:38;;;;;;;14.43;5.20;;;;;;;20.68;63.30;97339.94;5045296;28;20197;-76
2023/09/26 05:01:15;;;;;;;10.43;4.60;;;;;;;20.59;63.58;97350.34;5044960;28;20189;-81
2023/09/26 05:03:44;;;;;;;14.53;6.20;;;;;;;20.41;64.19;97347.41;5049296;28;20575;-79
2023/09/26 05:06:12;;;;;;;10.83;5.40;;;;;;;20.43;63.96;97345.50;5051159;28;20198;-78
2023/09/26 05:08:40;;;;;;;12.63;5.03;;;;;;;20.28;64.38;97347.56;5050369;28;20221;-76
2023/09/26 05:11:15;;;;;;;17.73;5.17;;;;;;;20.30;63.95;97343.97;5050694;28;20775;-81
2023/09/26 05:13:43;;;;;;;11.87;5.43;;;;;;;20.31;64.35;97350.91;5047523;28;20197;-75
2023/09/26 05:16:13;;;;;;;13.47;4.93;;;;;;;20.16;64.53;97327.44;5049332;28;20248;-82
2023/09/26 05:18:40;;;;;;;12.10;5.27;;;;;;;20.36;64.34;97349.56;5049531;28;20230;-75
2023/09/26 05:21:08;;;;;;;10.50;5.00;;;;;;;20.33;64.05;97341.94;5049494;28;20216;-76
2023/09/26 05:23:36;;;;;;;15.30;5.07;;;;;;;20.40;63.93;97351.00;5050356;28;20255;-80
2023/09/26 05:26:08;;;;;;;17.13;4.93;;;;;;;20.38;63.43;97336.31;5050542;28;20728;-78
2023/09/26 05:28:35;;;;;;;13.57;5.00;;;;;;;20.55;63.11;97357.66;5055753;28;20265;-77
2023/09/26 05:31:03;;;;;;;10.17;4.50;;;;;;;20.59;63.54;97356.44;5056372;28;20204;-77
2023/09/26 05:33:30;;;;;;;11.80;5.20;;;;;;;20.71;63.40;97347.56;5056266;28;20205;-77
2023/09/26 05:35:58;;;;;;;10.87;4.43;;;;;;;20.37;63.10;97306.53;5055168;28;20198;-84
2023/09/26 05:38:26;;;;;;;15.03;5.37;;;;;;;20.60;63.18;97358.13;5052731;28;20229;-85
2023/09/26 05:40:53;;;;;;;12.87;4.77;;;;;;;20.59;63.16;97359.09;5051034;28;20296;-81
2023/09/26 05:43:21;;;;;;;14.23;5.50;;;;;;;20.59;62.52;97361.72;5050102;28;21038;-80
2023/09/26 05:45:51;;;;;;;14.03;4.63;;;;;;;20.49;62.24;97368.69;5048782;28;20205;-79
2023/09/26 05:48:19;;;;;;;19.90;5.80;;;;;;;20.49;61.93;97370.47;5049958;28;20325;-77
2023/09/26 05:50:46;;;;;;;17.47;5.10;;;;;;;20.42;61.56;97364.03;5050826;28;20751;-76
2023/09/26 05:53:13;;;;;;;14.67;4.97;;;;;;;20.66;60.97;97368.16;5049764;28;20705;-76
2023/09/26 05:55:40;;;;;;;13.27;4.63;;;;;;;20.86;60.34;97372.66;5049092;28;20214;-75
2023/09/26 05:58:07;;;;;;;13.30;5.67;;;;;;;21.09;59.81;97365.53;5050123;28;20725;-75
2023/09/26 06:00:36;;;;;;;17.43;5.57;;;;;;;21.31;59.08;97354.88;5049657;28;20645;-78
2023/09/26 06:03:03;;;;;;;13.83;5.03;;;;;;;21.46;58.21;97358.84;5049376;28;20261;-79
2023/09/26 06:05:30;;;;;;;16.10;4.20;;;;;;;21.63;57.67;97370.63;5048847;28;20720;-76
2023/09/26 06:07:58;;;;;;;17.30;5.17;;;;;;;21.84;57.40;97368.81;5048622;28;20208;-75
2023/09/26 06:10:25;;;;;;;16.40;4.83;;;;;;;21.92;56.86;97381.34;5048969;28;20256;-76
2023/09/26 06:12:54;;;;;;;14.47;5.17;;;;;;;22.03;56.67;97379.44;5049053;28;20562;-75
2023/09/26 06:15:22;;;;;;;23.27;5.80;;;;;;;22.22;56.62;97384.81;5048521;28;20253;-75
2023/09/26 06:17:57;;;;;;;18.67;5.53;;;;;;;22.11;55.73;97361.19;5048621;28;20273;-76
2023/09/26 06:20:26;;;;;;;11.40;4.47;;;;;;;22.24;55.99;97377.59;5048175;28;20677;-77
2023/09/26 06:22:54;;;;;;;7.77;4.53;;;;;;;22.17;55.65;97368.56;5046834;28;20726;-77
2023/09/26 06:25:22;;;;;;;11.43;6.20;;;;;;;22.27;55.47;97390.53;5048206;28;20195;-79
2023/09/26 06:27:51;;;;;;;10.27;4.77;;;;;;;22.49;55.34;97398.25;5048439;28;20260;-80
2023/09/26 06:30:19;;;;;;;14.47;5.10;;;;;;;22.34;55.73;97383.72;5049205;28;20206;-77
2023/09/26 06:32:47;;;;;;;14.13;5.83;;;;;;;22.46;55.89;97395.84;5050885;28;20211;-77
2023/09/26 06:35:14;;;;;;;13.57;5.13;;;;;;;22.62;55.33;97398.03;5053223;28;20700;-77
2023/09/26 06:37:42;;;;;;;16.57;5.33;;;;;;;22.64;55.24;97381.09;5056700;28;20203;-82
2023/09/26 06:40:10;;;;;;;13.17;5.00;;;;;;;22.77;55.46;97390.56;5051962;28;20296;-75
2023/09/26 06:42:38;;;;;;;11.37;5.20;;;;;;;22.79;54.18;97386.81;5052107;28;20299;-76
2023/09/26 06:45:07;;;;;;;10.93;4.40;;;;;;;23.04;54.12;97401.28;5050205;28;20246;-79
2023/09/26 06:47:35;;;;;;;13.87;6.37;;;;;;;23.03;53.81;97386.41;5048239;28;20252;-75
2023/09/26 06:50:02;;;;;;;16.60;5.23;;;;;;;23.29;53.38;97404.22;5048783;28;20222;-77
2023/09/26 06:52:31;;;;;;;10.07;4.50;;;;;;;23.01;54.04;97402.41;5047431;28;20240;-77
2023/09/26 06:54:58;;;;;;;15.30;4.60;;;;;;;23.00;54.25;97405.19;5050621;28;20200;-79
2023/09/26 06:57:26;;;;;;;12.73;5.03;;;;;;;22.87;54.53;97404.59;5047901;28;20194;-76
2023/09/26 06:59:55;;;;;;;15.60;5.23;;;;;;;22.80;55.49;97399.03;5050677;28;20283;-77
2023/09/26 07:02:24;;;;;;;8.90;4.03;;;;;;;22.85;54.59;97406.56;5052534;28;20577;-77
2023/09/26 07:04:54;;;;;;;16.60;4.70;;;;;;;22.99;54.25;97396.44;5050120;28;20229;-78
2023/09/26 07:07:23;;;;;;;10.00;4.37;;;;;;;22.72;54.33;97355.78;5049067;28;20772;-76
2023/09/26 07:09:51;;;;;;;14.43;4.70;;;;;;;22.72;54.45;97387.47;5050389;28;20208;-78
2023/09/26 07:12:18;;;;;;;15.23;4.87;;;;;;;22.94;54.17;97401.28;5048709;28;20593;-79
2023/09/26 07:14:45;;;;;;;20.90;5.23;;;;;;;23.12;53.59;97412.00;5047877;28;20218;-79
2023/09/26 07:17:12;;;;;;;10.97;4.23;;;;;;;23.39;52.51;97405.06;5047729;28;20233;-78
2023/09/26 07:19:39;;;;;;;9.63;5.40;;;;;;;23.74;52.33;97404.47;5047105;28;20588;-79
2023/09/26 07:22:07;;;;;;;10.60;4.33;;;;;;;23.67;51.83;97403.38;5047596;28;20200;-78
2023/09/26 07:24:35;;;;;;;14.37;4.90;;;;;;;23.95;51.05;97397.19;5047475;28;20229;-80
2023/09/26 07:27:14;;;;;;;12.90;4.90;;;;;;;24.21;50.35;97378.88;5047630;28;20301;-79
2023/09/26 07:29:45;;;;;;;21.13;5.30;;;;;;;24.28;50.06;97373.84;5047650;28;20198;-79
2023/09/26 07:32:14;;;;;;;13.63;5.27;;;;;;;24.75;49.28;97407.22;5047780;28;20261;-83
2023/09/26 07:34:41;;;;;;;15.10;5.63;;;;;;;25.00;48.16;97399.34;5048194;28;20209;-76
2023/09/26 07:37:10;;;;;;;14.03;4.33;;;;;;;24.97;48.70;97397.03;5047130;28;20215;-75
2023/09/26 07:39:37;;;;;;;12.63;4.50;;;;;;;24.76;48.65;97382.38;5047221;28;20298;-78
2023/09/26 07:42:04;;;;;;;10.77;4.47;;;;;;;24.92;49.03;97401.91;5046143;28;20926;-81
2023/09/26 07:44:32;;;;;;;21.17;5.43;;;;;;;24.89;48.51;97396.09;5045161;28;20635;-79
2023/09/26 07:46:59;;;;;;;11.37;4.00;;;;;;;25.00;48.29;97395.84;5046514;28;20688;-78
2023/09/26 07:49:26;;;;;;;12.87;4.87;;;;;;;24.79;48.90;97397.97;5046486;28;20204;-76
2023/09/26 07:51:53;;;;;;;9.77;3.83;;;;;;;24.32;48.78;97404.34;5046410;28;20206;-77
2023/09/26 07:54:21;;;;;;;13.07;5.27;;;;;;;24.22;49.01;97410.50;5044823;28;20334;-76
2023/09/26 07:56:48;;;;;;;13.00;3.90;;;;;;;23.59;49.88;97392.69;5045869;28;20203;-77
2023/09/26 07:59:16;;;;;;;10.17;4.00;;;;;;;23.99;49.49;97403.84;5044880;28;20199;-76
2023/09/26 08:01:43;;;;;;;9.60;3.63;;;;;;;23.65;49.59;97415.06;5045603;28;20207;-81
2023/09/26 08:04:11;;;;;;;10.97;4.33;;;;;;;24.15;48.13;97419.16;5045632;28;20732;-79
2023/09/26 08:06:38;;;;;;;12.17;5.13;;;;;;;23.76;49.30;97401.69;5045306;28;20281;-79
2023/09/26 08:09:05;;;;;;;14.10;4.23;;;;;;;23.65;49.97;97415.91;5044595;28;20193;-83
2023/09/26 08:11:32;;;;;;;16.43;4.93;;;;;;;23.84;50.12;97404.47;5043945;28;20205;-81
2023/09/26 08:14:00;;;;;;;10.17;4.47;;;;;;;23.83;49.70;97410.72;5026003;28;20249;-83
2023/09/26 08:16:27;;;;;;;11.77;3.80;;;;;;;23.96;49.77;97404.16;5026722;28;20647;-78
2023/09/26 08:18:55;;;;;;;6.07;3.53;;;;;;;23.98;49.64;97412.78;5026178;28;20256;-78
2023/09/26 08:21:24;;;;;;;11.83;3.47;;;;;;;23.68;49.82;97410.31;5024516;28;20254;-85
2023/09/26 08:23:51;;;;;;;11.47;3.73;;;;;;;23.47;50.38;97416.75;5026102;28;20319;-83
2023/09/26 08:26:19;;;;;;;16.67;4.60;;;;;;;23.59;50.46;97403.25;5026157;28;20203;-82
2023/09/26 08:28:46;;;;;;;12.23;3.50;;;;;;;23.42;50.39;97419.81;5028642;28;20297;-78
2023/09/26 08:31:17;;;;;;;13.00;3.73;;;;;;;23.44;50.46;97407.28;5031798;28;20725;-80
2023/09/26 08:33:45;;;;;;;7.73;3.80;;;;;;;23.48;50.82;97403.41;5029931;28;20589;-82
2023/09/26 08:36:17;;;;;;;14.37;4.10;;;;;;;23.50;51.00;97405.88;5027847;28;20232;-76
2023/09/26 08:38:46;;;;;;;10.63;3.70;;;;;;;23.62;50.19;97413.53;5028675;28;20729;-82
2023/09/26 08:41:17;;;;;;;13.30;4.43;;;;;;;23.73;50.59;97423.13;5027107;28;20200;-80
2023/09/26 08:43:44;;;;;;;8.30;4.07;;;;;;;23.52;50.41;97393.38;5027095;28;20226;-82
2023/09/26 08:46:12;;;;;;;10.30;4.30;;;;;;;23.37;50.92;97409.66;5025212;28;20216;-87
2023/09/26 08:48:40;;;;;;;10.47;3.87;;;;;;;23.68;50.02;97414.81;5026659;28;20602;-87
2023/09/26 08:51:08;;;;;;;7.30;3.57;;;;;;;23.87;49.95;97418.22;5026488;28;20696;-89
2023/09/26 08:53:35;;;;;;;11.97;4.47;;;;;;;23.76;49.70;97391.94;5026345;28;20209;-88
2023/09/26 08:56:02;;;;;;;8.20;3.63;;;;;;;23.53;50.07;97389.75;5024778;28;20208;-82
2023/09/26 08:58:31;;;;;;;9.43;3.47;;;;;;;23.86;49.59;97402.50;5026009;28;20205;-83
2023/09/26 09:00:58;;;;;;;11.73;4.30;;;;;;;24.09;48.83;97403.88;5025920;28;20195;-86
2023/09/26 09:03:26;;;;;;;10.27;3.30;;;;;;;24.22;48.11;97399.91;5026115;28;20223;-87
2023/09/26 09:05:53;;;;;;;8.27;4.03;;;;;;;24.28;48.09;97376.50;5025436;28;20204;-85
2023/09/26 09:08:22;;;;;;;11.67;3.40;;;;;;;24.42;47.97;97413.88;5026252;28;20230;-86
2023/09/26 09:10:54;;;;;;;10.07;3.47;;;;;;;24.12;47.51;97400.91;5026368;28;20211;-85
2023/09/26 09:13:30;;;;;;;20.37;4.30;;;;;;;24.68;46.47;97409.56;5024981;28;20672;-77
2023/09/26 09:16:06;;;;;;;11.90;4.07;;;;;;;25.15;45.78;97383.75;5024252;28;20621;-80
2023/09/26 09:18:33;;;;;;;18.70;4.23;;;;;;;25.39;45.04;97399.88;5025418;28;20239;-79
2023/09/26 09:21:02;;;;;;;12.33;3.87;;;;;;;25.15;44.69;97399.66;5024065;28;20300;-75
2023/09/26 09:23:29;;;;;;;15.37;4.60;;;;;;;25.13;44.53;97398.97;5023861;28;20233;-81
2023/09/26 09:26:10;;;;;;;13.23;4.87;;;;;;;25.07;45.07;97390.78;5025764;28;20668;-78
2023/09/26 09:28:38;;;;;;;15.20;3.93;;;;;;;25.26;45.18;97394.13;5024243;28;20210;-85
2023/09/26 09:31:05;;;;;;;6.37;3.83;;;;;;;25.02;45.33;97393.88;5025061;28;20252;-78
2023/09/26 09:33:32;;;;;;;14.07;3.93;;;;;;;25.72;44.01;97395.69;5042537;28;20204;-82
2023/09/26 09:35:59;;;;;;;17.57;5.47;;;;;;;26.02;43.56;97386.44;5043827;28;20197;-85
2023/09/26 09:38:31;;;;;;;11.17;3.90;;;;;;;26.10;43.39;97394.47;5045614;28;20270;-85
2023/09/26 09:40:58;;;;;;;12.33;4.17;;;;;;;26.14;43.63;97403.78;5045033;28;20721;-84
2023/09/26 09:43:27;;;;;;;12.33;4.13;;;;;;;25.78;44.14;97395.09;5044114;28;20596;-86
2023/09/26 09:45:57;;;;;;;11.97;3.70;;;;;;;25.76;43.75;97389.91;5045354;28;20206;-75
2023/09/26 09:48:25;;;;;;;12.43;4.77;;;;;;;25.55;44.42;97397.41;5043444;28;20226;-76
2023/09/26 09:50:56;;;;;;;9.40;4.00;;;;;;;24.94;45.52;97391.16;5047740;28;20193;-75
2023/09/26 09:53:26;;;;;;;11.10;4.17;;;;;;;24.90;45.43;97373.91;5048537;28;20192;-78
2023/09/26 09:56:00;;;;;;;11.30;4.60;;;;;;;24.93;46.14;97390.34;5049142;28;20669;-78
2023/09/26 09:58:28;;;;;;;17.77;5.73;;;;;;;25.25;45.32;97388.97;5048355;28;20196;-78
2023/09/26 10:01:26;;;;;;;10.43;3.53;;;;;;;25.33;45.20;97381.91;5043534;28;20208;-76
2023/09/26 10:03:54;;;;;;;9.60;4.07;;;;;;;25.57;44.99;97384.81;5043310;28;20614;-77
2023/09/26 10:07:01;;;;;;;12.10;3.80;;;;;;;25.81;44.90;97386.81;5028265;28;20193;-79
2023/09/26 10:10:22;;;;;;;11.67;4.13;;;;;;;25.51;45.09;97393.38;5048090;28;20204;-75
2023/09/26 10:13:00;;;;;;;22.63;8.07;;;;;;;25.49;45.56;97379.44;5048470;28;20219;-76
2023/09/26 10:15:33;;;;;;;10.97;5.27;;;;;;;25.41;44.58;97363.44;5063097;28;20593;-76
2023/09/26 10:18:02;;;;;;;9.53;3.57;;;;;;;25.71;44.08;97363.03;5048789;28;20233;-78
2023/09/26 10:20:30;;;;;;;10.40;4.03;;;;;;;25.46;44.46;97369.13;5044767;28;20221;-77
2023/09/26 10:23:18;;;;;;;6.70;3.63;;;;;;;25.32;45.30;97369.66;5027110;28;20229;-76
2023/09/26 10:25:45;;;;;;;9.20;3.77;;;;;;;25.27;45.73;97371.94;5028424;28;20320;-76
2023/09/26 10:28:16;;;;;;;8.00;3.83;;;;;;;25.68;45.30;97360.69;5029768;28;20205;-76
2023/09/26 10:30:47;;;;;;;11.97;3.50;;;;;;;25.69;44.43;97338.47;5030623;28;20198;-78
2023/09/26 10:33:14;;;;;;;9.97;4.43;;;;;;;25.51;44.85;97374.81;5030125;28;20236;-76
2023/09/26 10:35:44;;;;;;;12.77;4.57;;;;;;;25.72;43.89;97367.34;5034348;28;20590;-75
2023/09/26 10:38:19;;;;;;;10.37;4.57;;;;;;;25.71;44.79;97368.34;5049318;28;20202;-77
2023/09/26 10:40:47;;;;;;;7.93;4.30;;;;;;;25.20;45.66;97332.94;5051039;28;20196;-78
2023/09/26 10:43:15;;;;;;;8.07;4.00;;;;;;;25.36;45.29;97357.75;5049901;28;20205;-79
2023/09/26 10:45:46;;;;;;;13.93;4.03;;;;;;;25.53;45.25;97348.16;5047784;28;20232;-76
2023/09/26 10:48:22;;;;;;;9.87;3.70;;;;;;;25.75;44.86;97345.81;5051050;28;21101;-76
2023/09/26 10:50:50;;;;;;;13.87;4.77;;;;;;;25.56;45.44;97343.34;5048998;28;20204;-76
2023/09/26 10:53:18;;;;;;;12.97;4.57;;;;;;;25.48;46.03;97343.28;5046282;28;20194;-78
2023/09/26 10:55:46;;;;;;;8.63;3.67;;;;;;;25.26;46.25;97341.13;5048744;28;20204;-75
2023/09/26 10:58:20;;;;;;;10.27;4.57;;;;;;;25.43;46.64;97361.47;5047660;28;20647;-75
2023/09/26 11:00:51;;;;;;;7.03;4.00;;;;;;;25.37;46.26;97346.16;5047803;28;20250;-78
2023/09/26 11:03:19;;;;;;;7.20;3.93;;;;;;;25.67;45.98;97348.41;5048248;28;20262;-84
2023/09/26 11:05:47;;;;;;;6.63;3.83;;;;;;;25.15;48.01;97343.16;5064372;28;20274;-78
2023/09/26 11:08:34;;;;;;;10.80;4.50;;;;;;;25.28;47.34;97325.03;5064476;28;20197;-77
2023/09/26 11:11:01;;;;;;;5.70;3.37;;;;;;;25.49;47.62;97355.56;5047089;28;20283;-76
2023/09/26 11:13:28;;;;;;;10.67;4.07;;;;;;;25.58;47.27;97337.88;5048223;28;20201;-77
2023/09/26 11:15:57;;;;;;;11.37;4.03;;;;;;;25.83;46.93;97343.19;5049535;28;20197;-74
2023/09/26 11:18:24;;;;;;;12.00;4.00;;;;;;;25.94;46.32;97339.44;5051867;28;20703;-77
2023/09/26 11:20:52;;;;;;;9.93;3.90;;;;;;;25.66;47.29;97354.69;5049812;28;20212;-80
2023/09/26 11:23:39;;;;;;;9.57;3.83;;;;;;;25.24;48.52;97335.13;5049929;28;20255;-86
2023/09/26 11:26:07;;;;;;;11.03;4.43;;;;;;;25.31;48.46;97341.47;5050290;28;21422;-76
2023/09/26 11:28:35;;;;;;;8.73;4.60;;;;;;;25.45;48.59;97337.47;5064098;28;20263;-77
2023/09/26 11:31:03;;;;;;;6.87;4.20;;;;;;;25.02;49.19;97298.47;5048722;28;20224;-82
2023/09/26 11:33:32;;;;;;;9.63;3.83;;;;;;;25.30;49.08;97336.31;5049326;28;20262;-76